Wetterdaten: Woche 14.03.16 - 20.03.16 (KW11)
Datum Zeit Temp. A. Feuchte A. Luftdruck Regen Wind Richtung Taupunkt Windchill Windben
14.03.2016 00:00 3,3 C 80 % 1027,2 hPa 0,0 l/m 5,4 km/h (1 Bft) W 0,2 C 3,2 C 11,0 km/h (2 Bft)
14.03.2016 01:00 3,0 C 82 % 1027,0 hPa 0,0 l/m 4,5 km/h (1 Bft) W 0,2 C 2,9 C 8,7 km/h (2 Bft)
14.03.2016 02:00 2,5 C 84 % 1026,9 hPa 0,0 l/m 4,4 km/h (1 Bft) W-NW 0,1 C 2,4 C 9,2 km/h (2 Bft)
14.03.2016 03:00 1,9 C 86 % 1026,7 hPa 0,0 l/m 5,1 km/h (1 Bft) SW -0,2 C 1,8 C 12,9 km/h (3 Bft)
14.03.2016 04:00 1,4 C 86 % 1026,7 hPa 0,0 l/m 4,6 km/h (1 Bft) S-SW -0,7 C 1,4 C 13,0 km/h (3 Bft)
14.03.2016 05:00 0,9 C 88 % 1027,1 hPa 0,0 l/m 4,3 km/h (1 Bft) S-SW -0,9 C 0,8 C 11,3 km/h (2 Bft)
14.03.2016 06:00 0,8 C 88 % 1027,3 hPa 0,0 l/m 4,7 km/h (1 Bft) W-NW -1,1 C 0,6 C 11,8 km/h (2 Bft)
14.03.2016 07:00 0,4 C 87 % 1027,8 hPa 0,0 l/m 4,9 km/h (1 Bft) SW -1,5 C 0,4 C 14,8 km/h (3 Bft)
14.03.2016 08:00 0,3 C 86 % 1028,2 hPa 0,0 l/m 4,8 km/h (1 Bft) NW -1,7 C 0,3 C 13,0 km/h (3 Bft)
14.03.2016 09:00 0,6 C 85 % 1028,3 hPa 0,0 l/m 4,6 km/h (1 Bft) W -1,6 C 0,3 C 12,1 km/h (2 Bft)
14.03.2016 10:00 2,0 C 79 % 1028,0 hPa 0,0 l/m 5,0 km/h (1 Bft) SW -1,3 C 1,9 C 14,2 km/h (3 Bft)
14.03.2016 11:00 4,2 C 69 % 1027,6 hPa 0,0 l/m 5,9 km/h (2 Bft) W-NW -1,0 C 3,9 C 14,4 km/h (3 Bft)
14.03.2016 12:00 5,7 C 61 % 1027,3 hPa 0,0 l/m 6,3 km/h (2 Bft) W -1,3 C 5,2 C 13,8 km/h (3 Bft)
14.03.2016 13:00 6,3 C 58 % 1027,0 hPa 0,0 l/m 6,6 km/h (2 Bft) NW -1,4 C 5,8 C 19,2 km/h (3 Bft)
14.03.2016 14:00 6,8 C 56 % 1026,4 hPa 0,0 l/m 5,5 km/h (2 Bft) N-NW -1,3 C 6,6 C 14,2 km/h (3 Bft)
14.03.2016 15:00 7,9 C 53 % 1026,0 hPa 0,0 l/m 5,2 km/h (1 Bft) W-NW -1,2 C 7,7 C 12,8 km/h (3 Bft)
14.03.2016 16:00 7,3 C 53 % 1025,6 hPa 0,0 l/m 5,4 km/h (1 Bft) NW -1,5 C 7,3 C 14,1 km/h (3 Bft)
14.03.2016 17:00 6,2 C 56 % 1025,8 hPa 0,0 l/m 4,0 km/h (1 Bft) W -2,0 C 6,2 C 10,8 km/h (2 Bft)
14.03.2016 18:00 5,1 C 60 % 1026,0 hPa 0,0 l/m 2,0 km/h (1 Bft) W -2,1 C 5,1 C 5,2 km/h (1 Bft)
14.03.2016 19:00 3,3 C 67 % 1026,1 hPa 0,0 l/m 0,5 km/h (0 Bft) W -2,3 C 3,3 C 2,0 km/h (1 Bft)
14.03.2016 20:00 0,9 C 76 % 1026,3 hPa 0,0 l/m 0,2 km/h (0 Bft) SW -2,8 C 0,9 C 1,4 km/h (1 Bft)
14.03.2016 21:00 -0,5 C 81 % 1026,2 hPa 0,0 l/m 0,0 km/h (0 Bft) SW -3,3 C -0,5 C 0,6 km/h (0 Bft)
14.03.2016 22:00 -2,0 C 86 % 1025,9 hPa 0,0 l/m 0,1 km/h (0 Bft) SW -4,0 C -2,0 C 0,9 km/h (0 Bft)
14.03.2016 23:00 -2,8 C 89 % 1025,8 hPa 0,0 l/m 0,0 km/h (0 Bft) SW -4,4 C -2,8 C 0,4 km/h (0 Bft)
15.03.2016 00:00 -3,2 C 90 % 1025,7 hPa 0,0 l/m 0,0 km/h (0 Bft) SW -4,7 C -3,2 C 0,0 km/h (0 Bft)
15.03.2016 01:00 -3,8 C 91 % 1025,9 hPa 0,0 l/m 0,1 km/h (0 Bft) SW -5,0 C -3,8 C 0,3 km/h (0 Bft)
15.03.2016 02:00 -4,2 C 92 % 1025,7 hPa 0,0 l/m 0,0 km/h (0 Bft) SW -5,2 C -4,2 C 0,4 km/h (0 Bft)
15.03.2016 03:00 -4,4 C 93 % 1025,5 hPa 0,0 l/m 0,2 km/h (0 Bft) SW -5,4 C -4,4 C 0,8 km/h (0 Bft)
15.03.2016 04:00 -4,7 C 93 % 1025,7 hPa 0,0 l/m 0,0 km/h (0 Bft) SW -5,7 C -4,7 C 0,3 km/h (0 Bft)
15.03.2016 05:00 -4,9 C 93 % 1025,6 hPa 0,0 l/m 0,0 km/h (0 Bft) SW -5,8 C -4,9 C 0,2 km/h (0 Bft)
15.03.2016 06:00 -4,7 C 94 % 1025,5 hPa 0,0 l/m 0,0 km/h (0 Bft) SW -5,6 C -4,7 C 0,3 km/h (0 Bft)
15.03.2016 07:00 -4,2 C 94 % 1025,5 hPa 0,0 l/m 0,0 km/h (0 Bft) SW -5,0 C -4,2 C 0,4 km/h (0 Bft)
15.03.2016 08:00 -2,3 C 93 % 1025,1 hPa 0,0 l/m 0,1 km/h (0 Bft) SW -3,3 C -2,3 C 0,9 km/h (0 Bft)
15.03.2016 09:00 -0,1 C 87 % 1024,9 hPa 0,0 l/m 0,6 km/h (0 Bft) SW -1,9 C -0,1 C 2,1 km/h (1 Bft)
15.03.2016 10:00 3,9 C 71 % 1024,3 hPa 0,0 l/m 1,4 km/h (1 Bft) W-SW -1,0 C 3,9 C 3,9 km/h (1 Bft)
15.03.2016 11:00 6,2 C 60 % 1023,4 hPa 0,0 l/m 2,3 km/h (1 Bft) W-SW -1,1 C 6,2 C 5,6 km/h (2 Bft)
15.03.2016 12:00 7,0 C 53 % 1022,7 hPa 0,0 l/m 2,5 km/h (1 Bft) S-SW -2,0 C 7,0 C 5,8 km/h (2 Bft)
15.03.2016 13:00 6,2 C 60 % 1022,1 hPa 0,0 l/m 3,7 km/h (1 Bft) W-NW -0,9 C 6,2 C 10,2 km/h (2 Bft)
15.03.2016 14:00 2,0 C 84 % 1022,4 hPa 0,0 l/m 2,6 km/h (1 Bft) W-SW -0,5 C 2,0 C 7,8 km/h (2 Bft)
15.03.2016 15:00 0,6 C 93 % 1022,2 hPa 0,0 l/m 1,2 km/h (1 Bft) W-SW -0,5 C 0,6 C 3,1 km/h (1 Bft)
15.03.2016 16:00 0,5 C 94 % 1022,1 hPa 1,0 l/m 2,0 km/h (1 Bft) W -0,4 C 0,5 C 6,0 km/h (2 Bft)
15.03.2016 17:00 0,1 C 93 % 1022,3 hPa 0,5 l/m 4,3 km/h (1 Bft) W -0,9 C -0,1 C 10,8 km/h (2 Bft)
15.03.2016 18:00 -0,1 C 93 % 1022,6 hPa 0,0 l/m 4,5 km/h (1 Bft) S-SW -1,0 C -0,1 C 11,6 km/h (2 Bft)
15.03.2016 19:00 -0,1 C 95 % 1022,9 hPa 0,0 l/m 4,0 km/h (1 Bft) S-SW -0,9 C -0,1 C 12,1 km/h (2 Bft)
15.03.2016 20:00 0,1 C 94 % 1022,7 hPa 0,0 l/m 4,1 km/h (1 Bft) S-SW -0,8 C 0,1 C 11,2 km/h (2 Bft)
15.03.2016 21:00 0,1 C 93 % 1022,6 hPa 0,0 l/m 4,8 km/h (1 Bft) W -0,9 C -0,0 C 11,8 km/h (2 Bft)
15.03.2016 22:00 0,1 C 93 % 1022,5 hPa 0,0 l/m 4,2 km/h (1 Bft) S-SW -0,9 C 0,1 C 11,8 km/h (2 Bft)
15.03.2016 23:00 -0,0 C 93 % 1022,3 hPa 0,0 l/m 4,0 km/h (1 Bft) W -1,1 C -0,0 C 11,3 km/h (2 Bft)
16.03.2016 00:00 -0,3 C 92 % 1022,1 hPa 0,0 l/m 4,9 km/h (1 Bft) W-NW -1,4 C -0,5 C 12,5 km/h (2 Bft)
16.03.2016 01:00 -0,5 C 92 % 1021,9 hPa 0,0 l/m 5,0 km/h (1 Bft) W -1,6 C -0,5 C 12,9 km/h (3 Bft)
16.03.2016 02:00 -0,5 C 93 % 1021,4 hPa 0,0 l/m 4,5 km/h (1 Bft) W-NW -1,6 C -0,7 C 11,4 km/h (2 Bft)
16.03.2016 03:00 -0,5 C 93 % 1021,2 hPa 0,0 l/m 5,7 km/h (2 Bft) W -1,5 C -0,7 C 13,9 km/h (3 Bft)
16.03.2016 04:00 -0,5 C 92 % 1020,8 hPa 0,0 l/m 5,9 km/h (2 Bft) S-SW -1,6 C -0,9 C 16,9 km/h (3 Bft)
16.03.2016 05:00 -0,7 C 92 % 1020,6 hPa 0,0 l/m 5,8 km/h (2 Bft) W -1,8 C -0,9 C 15,3 km/h (3 Bft)
16.03.2016 06:00 -0,8 C 91 % 1020,6 hPa 0,0 l/m 6,4 km/h (2 Bft) W -2,0 C -1,4 C 15,7 km/h (3 Bft)
16.03.2016 07:00 -0,8 C 91 % 1020,7 hPa 0,0 l/m 5,8 km/h (2 Bft) W-NW -2,1 C -0,9 C 15,6 km/h (3 Bft)
16.03.2016 08:00 -0,5 C 89 % 1020,5 hPa 0,0 l/m 6,8 km/h (2 Bft) W-NW -2,1 C -1,1 C 17,2 km/h (3 Bft)
16.03.2016 09:00 -0,4 C 85 % 1020,7 hPa 0,0 l/m 5,7 km/h (2 Bft) W-NW -2,6 C -0,9 C 15,8 km/h (3 Bft)
16.03.2016 10:00 0,1 C 79 % 1021,2 hPa 0,0 l/m 7,3 km/h (2 Bft) SW -3,2 C -1,2 C 21,2 km/h (4 Bft)
16.03.2016 11:00 0,9 C 77 % 1021,2 hPa 0,3 l/m 5,4 km/h (1 Bft) W-NW -2,7 C 0,6 C 15,9 km/h (3 Bft)
16.03.2016 12:00 1,3 C 75 % 1021,4 hPa 0,3 l/m 6,8 km/h (2 Bft) S-SW -2,5 C 0,5 C 17,5 km/h (3 Bft)
16.03.2016 13:00 2,8 C 71 % 1021,5 hPa 0,5 l/m 7,1 km/h (2 Bft) W-NW -2,0 C 2,0 C 20,0 km/h (4 Bft)
16.03.2016 14:00 5,0 C 64 % 1021,5 hPa 0,0 l/m 7,9 km/h (2 Bft) W-NW -1,2 C 3,7 C 19,7 km/h (3 Bft)
16.03.2016 15:00 6,1 C 60 % 1021,6 hPa 0,0 l/m 7,4 km/h (2 Bft) W-NW -1,1 C 5,2 C 17,2 km/h (3 Bft)
16.03.2016 16:00 6,5 C 58 % 1021,8 hPa 0,0 l/m 6,6 km/h (2 Bft) W-NW -1,2 C 6,0 C 17,3 km/h (3 Bft)
16.03.2016 17:00 5,6 C 59 % 1022,4 hPa 0,0 l/m 5,5 km/h (2 Bft) W-NW -1,8 C 5,5 C 14,4 km/h (3 Bft)
16.03.2016 18:00 4,7 C 62 % 1022,8 hPa 0,0 l/m 5,4 km/h (2 Bft) W -1,9 C 4,5 C 13,6 km/h (3 Bft)
16.03.2016 19:00 3,6 C 67 % 1023,7 hPa 0,0 l/m 3,9 km/h (1 Bft) S-SW -2,0 C 3,6 C 12,0 km/h (2 Bft)
16.03.2016 20:00 3,0 C 69 % 1024,1 hPa 0,0 l/m 5,3 km/h (1 Bft) W-SW -2,2 C 2,9 C 14,0 km/h (3 Bft)
16.03.2016 21:00 2,6 C 70 % 1024,2 hPa 0,0 l/m 4,9 km/h (1 Bft) SW -2,3 C 2,5 C 11,9 km/h (2 Bft)
16.03.2016 22:00 1,8 C 74 % 1024,7 hPa 0,0 l/m 3,4 km/h (1 Bft) W -2,3 C 1,8 C 11,0 km/h (2 Bft)
16.03.2016 23:00 1,1 C 77 % 1024,8 hPa 0,0 l/m 2,8 km/h (1 Bft) W-SW -2,4 C 1,1 C 8,8 km/h (2 Bft)
17.03.2016 00:00 0,3 C 81 % 1024,8 hPa 0,0 l/m 1,3 km/h (1 Bft) W-SW -2,6 C 0,3 C 3,8 km/h (1 Bft)
17.03.2016 01:00 -1,0 C 85 % 1025,0 hPa 0,0 l/m 0,5 km/h (0 Bft) W-NW -3,2 C -1,0 C 2,7 km/h (1 Bft)
17.03.2016 02:00 -2,5 C 89 % 1024,9 hPa 0,0 l/m 0,2 km/h (0 Bft) W-NW -4,0 C -2,5 C 1,1 km/h (1 Bft)
17.03.2016 03:00 -2,8 C 91 % 1025,1 hPa 0,0 l/m 0,2 km/h (0 Bft) N -4,1 C -2,8 C 1,6 km/h (1 Bft)
17.03.2016 04:00 -2,9 C 91 % 1025,3 hPa 0,0 l/m 0,4 km/h (0 Bft) N -4,1 C -2,9 C 1,9 km/h (1 Bft)
17.03.2016 05:00 -3,6 C 93 % 1025,5 hPa 0,0 l/m 0,6 km/h (0 Bft) N -4,6 C -3,6 C 1,5 km/h (1 Bft)
17.03.2016 06:00 -3,8 C 94 % 1025,5 hPa 0,0 l/m 0,2 km/h (0 Bft) N -4,7 C -3,8 C 1,4 km/h (1 Bft)
17.03.2016 07:00 -3,2 C 94 % 1025,9 hPa 0,0 l/m 0,1 km/h (0 Bft) N -4,1 C -3,2 C 0,9 km/h (0 Bft)
17.03.2016 08:00 0,3 C 86 % 1026,2 hPa 0,0 l/m 2,0 km/h (1 Bft) NW -1,8 C 0,3 C 4,2 km/h (1 Bft)
17.03.2016 09:00 2,0 C 81 % 1026,2 hPa 0,0 l/m 3,3 km/h (1 Bft) W-NW -0,9 C 2,0 C 6,4 km/h (2 Bft)
17.03.2016 10:00 3,9 C 75 % 1026,1 hPa 0,0 l/m 3,3 km/h (1 Bft) NW -0,1 C 3,9 C 7,9 km/h (2 Bft)
17.03.2016 11:00 6,1 C 67 % 1025,7 hPa 0,0 l/m 3,0 km/h (1 Bft) NW 0,3 C 6,1 C 6,5 km/h (2 Bft)
17.03.2016 12:00 7,7 C 61 % 1025,4 hPa 0,0 l/m 3,6 km/h (1 Bft) W-NW 0,7 C 7,7 C 6,9 km/h (2 Bft)
17.03.2016 13:00 9,4 C 54 % 1024,7 hPa 0,0 l/m 4,0 km/h (1 Bft) NW 0,6 C 9,4 C 10,1 km/h (2 Bft)
17.03.2016 14:00 10,8 C 50 % 1023,9 hPa 0,0 l/m 4,1 km/h (1 Bft) NW 0,6 C 10,8 C 9,0 km/h (2 Bft)
17.03.2016 15:00 11,3 C 48 % 1023,5 hPa 0,0 l/m 4,7 km/h (1 Bft) W-NW 0,6 C 11,2 C 9,8 km/h (2 Bft)
17.03.2016 16:00 11,2 C 46 % 1023,3 hPa 0,0 l/m 3,8 km/h (1 Bft) SW -0,1 C 11,2 C 9,4 km/h (2 Bft)
17.03.2016 17:00 10,3 C 51 % 1023,1 hPa 0,0 l/m 2,5 km/h (1 Bft) W-SW 0,7 C 10,3 C 6,9 km/h (2 Bft)
17.03.2016 18:00 8,7 C 56 % 1023,1 hPa 0,0 l/m 1,4 km/h (1 Bft) SW 0,5 C 8,7 C 3,9 km/h (1 Bft)
17.03.2016 19:00 5,0 C 70 % 1023,6 hPa 0,0 l/m 0,2 km/h (0 Bft) N-NW -0,1 C 5,0 C 1,2 km/h (1 Bft)
17.03.2016 20:00 2,3 C 79 % 1023,7 hPa 0,0 l/m 0,0 km/h (0 Bft) N-NW -1,0 C 2,3 C 0,0 km/h (0 Bft)
17.03.2016 21:00 0,7 C 84 % 1023,8 hPa 0,0 l/m 0,0 km/h (0 Bft) N -1,6 C 0,7 C 0,0 km/h (0 Bft)
17.03.2016 22:00 -0,4 C 88 % 1023,7 hPa 0,0 l/m 0,0 km/h (0 Bft) N -2,2 C -0,4 C 0,0 km/h (0 Bft)
17.03.2016 23:00 -1,2 C 90 % 1023,6 hPa 0,0 l/m 0,0 km/h (0 Bft) N -2,6 C -1,2 C 0,1 km/h (0 Bft)
18.03.2016 00:00 -1,7 C 91 % 1023,5 hPa 0,0 l/m 0,0 km/h (0 Bft) N-NW -2,9 C -1,7 C 0,1 km/h (0 Bft)
18.03.2016 01:00 -2,5 C 92 % 1023,2 hPa 0,0 l/m 0,0 km/h (0 Bft) N-NW -3,6 C -2,5 C 0,0 km/h (0 Bft)
18.03.2016 02:00 -2,9 C 93 % 1022,9 hPa 0,0 l/m 0,0 km/h (0 Bft) N-NW -3,9 C -2,9 C 0,2 km/h (0 Bft)
18.03.2016 03:00 -3,3 C 94 % 1022,6 hPa 0,0 l/m 0,0 km/h (0 Bft) N-NW -4,1 C -3,3 C 0,3 km/h (0 Bft)
18.03.2016 04:00 -3,7 C 94 % 1022,2 hPa 0,0 l/m 0,0 km/h (0 Bft) N-NW -4,5 C -3,7 C 0,1 km/h (0 Bft)
18.03.2016 05:00 -3,9 C 94 % 1022,0 hPa 0,0 l/m 0,0 km/h (0 Bft) N-NW -4,7 C -3,9 C 0,5 km/h (0 Bft)
18.03.2016 06:00 -4,1 C 94 % 1021,9 hPa 0,0 l/m 0,1 km/h (0 Bft) N-NW -4,9 C -4,1 C 0,5 km/h (0 Bft)
18.03.2016 07:00 -3,2 C 94 % 1022,2 hPa 0,0 l/m 0,1 km/h (0 Bft) N-NW -4,0 C -3,2 C 0,5 km/h (0 Bft)
18.03.2016 08:00 1,0 C 86 % 1022,1 hPa 0,0 l/m 0,8 km/h (0 Bft) N-NW -1,1 C 1,0 C 1,9 km/h (1 Bft)
18.03.2016 09:00 4,5 C 78 % 1021,8 hPa 0,0 l/m 1,7 km/h (1 Bft) N-NW 1,1 C 4,5 C 3,2 km/h (1 Bft)
18.03.2016 10:00 9,4 C 57 % 1021,2 hPa 0,0 l/m 2,5 km/h (1 Bft) N-NO 1,3 C 9,4 C 5,7 km/h (2 Bft)
18.03.2016 11:00 11,8 C 43 % 1020,8 hPa 0,0 l/m 3,2 km/h (1 Bft) N-NW -0,3 C 11,8 C 5,9 km/h (2 Bft)
18.03.2016 12:00 12,9 C 41 % 1020,4 hPa 0,0 l/m 3,5 km/h (1 Bft) NW -0,0 C 12,9 C 6,6 km/h (2 Bft)
18.03.2016 13:00 13,5 C 40 % 1019,5 hPa 0,0 l/m 3,9 km/h (1 Bft) NO 0,2 C 13,5 C 9,4 km/h (2 Bft)
18.03.2016 14:00 14,1 C 40 % 1018,9 hPa 0,0 l/m 3,3 km/h (1 Bft) SW 0,6 C 14,1 C 8,4 km/h (2 Bft)
18.03.2016 15:00 14,7 C 39 % 1018,4 hPa 0,0 l/m 2,6 km/h (1 Bft) NO 1,1 C 14,7 C 5,0 km/h (1 Bft)
18.03.2016 16:00 14,5 C 38 % 1018,1 hPa 0,0 l/m 3,5 km/h (1 Bft) O 0,5 C 14,5 C 7,8 km/h (2 Bft)
18.03.2016 17:00 12,8 C 42 % 1018,5 hPa 0,0 l/m 3,0 km/h (1 Bft) O 0,1 C 12,8 C 6,7 km/h (2 Bft)
18.03.2016 18:00 10,7 C 48 % 1018,9 hPa 0,0 l/m 1,1 km/h (1 Bft) SW 0,2 C 10,7 C 3,0 km/h (1 Bft)
18.03.2016 19:00 6,3 C 64 % 1019,3 hPa 0,0 l/m 0,1 km/h (0 Bft) SW -0,1 C 6,3 C 1,1 km/h (0 Bft)
18.03.2016 20:00 3,0 C 75 % 1019,5 hPa 0,0 l/m 0,0 km/h (0 Bft) SW -1,0 C 3,0 C 0,3 km/h (0 Bft)
18.03.2016 21:00 1,5 C 80 % 1019,6 hPa 0,0 l/m 0,0 km/h (0 Bft) SW -1,6 C 1,5 C 0,1 km/h (0 Bft)
18.03.2016 22:00 0,0 C 84 % 1019,7 hPa 0,0 l/m 0,0 km/h (0 Bft) SW -2,4 C 0,0 C 0,3 km/h (0 Bft)
18.03.2016 23:00 -0,9 C 86 % 1019,9 hPa 0,0 l/m 0,0 km/h (0 Bft) SW -2,9 C -0,9 C 0,0 km/h (0 Bft)
19.03.2016 00:00 -1,4 C 88 % 1019,9 hPa 0,0 l/m 0,0 km/h (0 Bft) SW -3,2 C -1,4 C 0,0 km/h (0 Bft)
19.03.2016 01:00 -2,0 C 89 % 1019,8 hPa 0,0 l/m 0,0 km/h (0 Bft) SW -3,5 C -2,0 C 0,3 km/h (0 Bft)
19.03.2016 02:00 -2,4 C 90 % 1019,5 hPa 0,0 l/m 0,0 km/h (0 Bft) SW -3,7 C -2,4 C 0,3 km/h (0 Bft)
19.03.2016 03:00 -2,7 C 91 % 1019,2 hPa 0,0 l/m 0,0 km/h (0 Bft) N -4,0 C -2,7 C 0,2 km/h (0 Bft)
19.03.2016 04:00 -3,1 C 92 % 1018,9 hPa 0,0 l/m 0,1 km/h (0 Bft) N -4,2 C -3,1 C 0,2 km/h (0 Bft)
19.03.2016 05:00 -3,3 C 93 % 1018,7 hPa 0,0 l/m 0,0 km/h (0 Bft) N -4,3 C -3,3 C 0,1 km/h (0 Bft)
19.03.2016 06:00 -3,7 C 93 % 1018,9 hPa 0,0 l/m 0,0 km/h (0 Bft) SW -4,7 C -3,7 C 0,0 km/h (0 Bft)
19.03.2016 07:00 -2,7 C 93 % 1019,1 hPa 0,0 l/m 0,0 km/h (0 Bft) SW -3,6 C -2,7 C 0,1 km/h (0 Bft)
19.03.2016 08:00 1,6 C 83 % 1019,4 hPa 0,0 l/m 0,9 km/h (0 Bft) SW -0,9 C 1,6 C 2,5 km/h (1 Bft)
19.03.2016 09:00 4,7 C 75 % 1019,4 hPa 0,0 l/m 2,1 km/h (1 Bft) SW 0,5 C 4,7 C 4,1 km/h (1 Bft)
19.03.2016 10:00 7,8 C 64 % 1019,4 hPa 0,0 l/m 3,0 km/h (1 Bft) NW 1,5 C 7,8 C 7,1 km/h (2 Bft)
19.03.2016 11:00 9,3 C 59 % 1019,3 hPa 0,0 l/m 5,2 km/h (1 Bft) W 1,7 C 9,2 C 11,7 km/h (2 Bft)
19.03.2016 12:00 9,6 C 60 % 1019,1 hPa 0,0 l/m 5,3 km/h (1 Bft) W 2,1 C 9,6 C 11,4 km/h (2 Bft)
19.03.2016 13:00 9,6 C 62 % 1019,0 hPa 0,0 l/m 5,9 km/h (2 Bft) W-NW 2,6 C 9,5 C 13,3 km/h (3 Bft)
19.03.2016 14:00 9,4 C 64 % 1018,9 hPa 0,0 l/m 5,1 km/h (1 Bft) W 2,9 C 9,4 C 11,9 km/h (2 Bft)
19.03.2016 15:00 9,0 C 65 % 1018,9 hPa 0,0 l/m 4,9 km/h (1 Bft) W-NW 2,8 C 9,0 C 8,9 km/h (2 Bft)
19.03.2016 16:00 7,6 C 69 % 1018,9 hPa 0,0 l/m 4,6 km/h (1 Bft) W-NW 2,3 C 7,6 C 8,6 km/h (2 Bft)
19.03.2016 17:00 5,7 C 75 % 1019,2 hPa 0,0 l/m 4,2 km/h (1 Bft) W-NW 1,7 C 5,7 C 7,7 km/h (2 Bft)
19.03.2016 18:00 3,6 C 82 % 1019,8 hPa 0,0 l/m 2,9 km/h (1 Bft) NW 0,8 C 3,6 C 6,3 km/h (2 Bft)
19.03.2016 19:00 2,6 C 87 % 1020,4 hPa 0,0 l/m 2,6 km/h (1 Bft) W 0,6 C 2,6 C 7,2 km/h (2 Bft)
19.03.2016 20:00 2,3 C 88 % 1020,8 hPa 0,0 l/m 2,6 km/h (1 Bft) W-NW 0,4 C 2,3 C 5,8 km/h (2 Bft)
19.03.2016 21:00 1,9 C 89 % 1020,9 hPa 0,0 l/m 1,8 km/h (1 Bft) W-NW 0,3 C 1,9 C 3,6 km/h (1 Bft)
19.03.2016 22:00 1,7 C 88 % 1020,8 hPa 0,0 l/m 2,0 km/h (1 Bft) W -0,0 C 1,7 C 4,2 km/h (1 Bft)
19.03.2016 23:00 1,7 C 88 % 1020,7 hPa 0,0 l/m 1,7 km/h (1 Bft) W -0,1 C 1,7 C 3,8 km/h (1 Bft)
20.03.2016 00:00 1,5 C 88 % 1020,6 hPa 0,0 l/m 2,3 km/h (1 Bft) SW -0,3 C 1,5 C 5,6 km/h (2 Bft)
20.03.2016 01:00 1,4 C 88 % 1020,4 hPa 0,0 l/m 2,0 km/h (1 Bft) SW -0,4 C 1,4 C 5,6 km/h (2 Bft)
20.03.2016 02:00 1,3 C 88 % 1019,8 hPa 0,0 l/m 1,5 km/h (1 Bft) W -0,4 C 1,3 C 4,4 km/h (1 Bft)
20.03.2016 03:00 1,3 C 88 % 1019,4 hPa 0,0 l/m 1,2 km/h (1 Bft) N-NO -0,5 C 1,3 C 3,3 km/h (1 Bft)
20.03.2016 04:00 1,1 C 88 % 1019,2 hPa 0,0 l/m 1,4 km/h (1 Bft) W-SW -0,6 C 1,1 C 4,1 km/h (1 Bft)
20.03.2016 05:00 0,8 C 89 % 1018,9 hPa 0,0 l/m 1,1 km/h (1 Bft) NW -0,8 C 0,8 C 3,3 km/h (1 Bft)
20.03.2016 06:00 0,8 C 89 % 1019,0 hPa 0,0 l/m 1,6 km/h (1 Bft) NO -0,8 C 0,8 C 3,7 km/h (1 Bft)
20.03.2016 07:00 0,8 C 90 % 1019,1 hPa 0,0 l/m 0,8 km/h (0 Bft) O -0,7 C 0,8 C 2,9 km/h (1 Bft)
20.03.2016 08:00 1,3 C 89 % 1019,1 hPa 0,0 l/m 1,4 km/h (1 Bft) W -0,4 C 1,3 C 3,6 km/h (1 Bft)
20.03.2016 09:00 1,6 C 87 % 1019,2 hPa 0,0 l/m 1,6 km/h (1 Bft) NW -0,3 C 1,6 C 3,9 km/h (1 Bft)
20.03.2016 10:00 2,4 C 85 % 1019,3 hPa 0,0 l/m 1,6 km/h (1 Bft) W 0,1 C 2,4 C 4,1 km/h (1 Bft)
20.03.2016 11:00 3,5 C 81 % 1019,0 hPa 0,0 l/m 1,7 km/h (1 Bft) NW 0,6 C 3,5 C 4,3 km/h (1 Bft)
20.03.2016 12:00 5,1 C 76 % 1018,6 hPa 0,0 l/m 2,5 km/h (1 Bft) W-SW 1,2 C 5,1 C 5,0 km/h (1 Bft)
20.03.2016 13:00 8,0 C 66 % 1017,8 hPa 0,0 l/m 3,3 km/h (1 Bft) N-NO 2,0 C 8,0 C 6,8 km/h (2 Bft)
20.03.2016 14:00 10,1 C 59 % 1017,0 hPa 0,0 l/m 3,0 km/h (1 Bft) W-SW 2,5 C 10,1 C 6,6 km/h (2 Bft)
20.03.2016 15:00 11,0 C 57 % 1016,5 hPa 0,0 l/m 2,8 km/h (1 Bft) NO 2,7 C 11,0 C 4,5 km/h (1 Bft)
20.03.2016 16:00 11,2 C 56 % 1016,1 hPa 0,0 l/m 2,5 km/h (1 Bft) W-NW 2,8 C 11,2 C 5,0 km/h (1 Bft)
20.03.2016 17:00 9,3 C 60 % 1016,2 hPa 0,0 l/m 3,0 km/h (1 Bft) W 1,8 C 9,3 C 7,0 km/h (2 Bft)
20.03.2016 18:00 6,8 C 67 % 1016,8 hPa 0,0 l/m 3,0 km/h (1 Bft) W-NW 1,1 C 6,8 C 7,0 km/h (2 Bft)
20.03.2016 19:00 3,8 C 77 % 1017,6 hPa 0,0 l/m 2,8 km/h (1 Bft) NW 0,1 C 3,8 C 7,1 km/h (2 Bft)
20.03.2016 20:00 2,2 C 83 % 1018,4 hPa 0,0 l/m 2,6 km/h (1 Bft) W -0,5 C 2,2 C 6,7 km/h (2 Bft)
20.03.2016 21:00 1,8 C 84 % 1018,5 hPa 0,0 l/m 2,1 km/h (1 Bft) W -0,5 C 1,8 C 5,7 km/h (2 Bft)
20.03.2016 22:00 1,8 C 85 % 1018,5 hPa 0,0 l/m 1,8 km/h (1 Bft) SW -0,5 C 1,8 C 5,3 km/h (1 Bft)
20.03.2016 23:00 1,8 C 86 % 1018,7 hPa 0,0 l/m 1,5 km/h (1 Bft) SW -0,3 C 1,8 C 4,0 km/h (1 Bft)
Min-Datum _ 15.03.16 18.03.16 20.03.16 - 20.03.16 - 15.03.16 16.03.16 19.03.16
_ Min-Zeit 06:00 16:05 17:00 - 23:59 - 06:00 09:55 23:22
Minimum _ -5,0 C 37 % 1015,9 hPa - 0,0 km/h (0 Bft) - -6,0 C -5,2 C 0,0 km/h (0 Bft)
Max-Datum _ 18.03.16 18.03.16 14.03.16 15.03.16 16.03.16 - 20.03.16 18.03.16 16.03.16
_ Max-Zeit 15:55 07:25 09:25 16:05 14:57 - 15:20 15:55 09:55
Maximum _ 15,2 C 96 % 1028,4 hPa 1,0 l/m 12,9 km/h
W-NW (3 Bft)
- 3,2 C 15,2 C 33,8 km/h
W-NW (5 Bft)
Durchschnitt _ 2,5 C 78 % 1022,3 hPa #2,5 l/m 2,7 km/h (1 Bft) N -1,3 C 2,5 C 6,8 km/h (2 Bft)